Flight Track Log - Related Links

Times and Time Zones

All times are in EDT time to prevent confusion due to time zone crossing. See the SKW5429 flight status page for this flight to view local times or setup timezone preferences in your user account.


Time Position Orientation Groundspeed Altitude Reporting Facility
EDT Latitude Longitude Course Direction KTS MPH feet Rate Location/Type
Mon 09:36:07 AM 44.0586 -103.0700 240° Southwest 148 170 3,800  Level Denver Center
Mon 09:40:15 AM 43.9181 -103.4092 212° Southwest 276 318 8,100 796 Climbing Denver Center
Mon 09:41:16 AM 43.8550 -103.4642 166° South 259 298 7,900 -47 Descending Denver Center
Mon 09:42:22 AM 43.7981 -103.4439 North 272 313 8,000 -94 Climbing Denver Center
Mon 09:43:23 AM 43.8458 -103.4414 339° North 220 253 7,700 50 Descending Denver Center
Mon 09:44:23 AM 43.8967 -103.4678 210° Southwest 214 246 8,100 1,418 Climbing Denver Center
Mon 09:45:13 AM 43.8517 -103.5044 173° South 298 343 10,300 2,673 Climbing Denver Center
Mon 09:46:13 AM 43.7703 -103.4911 171° South 311 358 13,000 2,500 Climbing Denver Center
Mon 09:47:13 AM 43.6947 -103.4747 175° South 311 358 15,300 2,300 Climbing Denver Center
Mon 09:48:13 AM 43.6092 -103.4644 174° South 311 358 17,600 1,700 Climbing Denver Center
Mon 09:49:13 AM 43.5086 -103.4494 174° South 323 372 18,700 1,050 Climbing Denver Center
Mon 09:50:13 AM 43.4061 -103.4344 173° South 354 407 19,700 1,200 Climbing Denver Center
Mon 09:51:13 AM 43.3017 -103.4167 172° South 380 437 21,100 1,650 Climbing Denver Center
Mon 09:52:13 AM 43.2053 -103.3986 172° South 392 451 23,000 1,650 Climbing Denver Center
Mon 09:53:13 AM 43.0922 -103.3756 172° South 387 445 24,400 1,450 Climbing Denver Center
Mon 09:54:13 AM 42.9853 -103.3553 172° South 387 445 25,900 950 Climbing Denver Center
Mon 09:55:13 AM 42.8828 -103.3350 172° South 387 445 26,300 800 Climbing Denver Center
Mon 09:56:13 AM 42.7883 -103.3169 183° South 387 445 27,500 1,150 Climbing Denver Center
Mon 09:57:13 AM 42.6783 -103.3253 187° South 371 427 28,600 850 Climbing Denver Center
Mon 09:58:13 AM 42.5806 -103.3414 190° South 364 419 29,200 900 Climbing Denver Center
Mon 09:59:13 AM 42.4814 -103.3658 188° South 369 425 30,400 1,050 Climbing Denver Center
Mon 10:00:13 AM 42.3961 -103.3814 188° South 363 418 31,300 800 Climbing Denver Center
Mon 10:01:13 AM 42.2925 -103.4003 188° South 352 405 32,000 350 Climbing Denver Center
Mon 10:02:13 AM 42.1972 -103.4189 189° South 352 405 32,000  Level Denver Center
Mon 10:03:13 AM 42.0975 -103.4403 188° South 357 411 32,000  Level Denver Center
Mon 10:04:13 AM 42.0022 -103.4589 189° South 377 434 32,000  Level Denver Center
Mon 10:05:13 AM 41.9047 -103.4800 186° South 377 434 32,000  Level Denver Center
Mon 10:06:13 AM 41.7906 -103.4964 188° South 371 427 32,000  Level Denver Center
Mon 10:07:13 AM 41.6931 -103.5147 186° South 366 421 32,000  Level Denver Center
Mon 10:08:13 AM 41.6036 -103.5272 186° South 366 421 32,000  Level Denver Center
Mon 10:09:13 AM 41.5061 -103.5400 187° South 360 414 32,000  Level Denver Center
Mon 10:10:13 AM 41.3981 -103.5586 184° South 365 420 32,000  Level Denver Center
Mon 10:11:13 AM 41.2983 -103.5686 187° South 359 413 32,000  Level Denver Center
Mon 10:12:13 AM 41.2089 -103.5836 186° South 365 420 32,000  Level Denver Center
Mon 10:13:13 AM 41.1133 -103.5958 186° South 365 420 32,000  Level Denver Center
Mon 10:14:13 AM 41.0075 -103.6114 189° South 360 414 32,000  Level Denver Center
Mon 10:15:13 AM 40.9142 -103.6319 190° South 352 405 32,000  Level Denver Center
Mon 10:16:13 AM 40.8186 -103.6553 208° Southwest 346 398 32,000 -450 Level Denver Center
Mon 10:17:13 AM 40.7367 -103.7136 211° Southwest 346 398 31,100 -2,300 Descending Denver Center
Mon 10:18:13 AM 40.6508 -103.7828 211° Southwest 351 404 27,400 -3,750 Descending Denver Center
Mon 10:19:13 AM 40.5628 -103.8519 208° Southwest 364 419 23,600 -3,850 Descending Denver Center
Mon 10:20:13 AM 40.4683 -103.9183 210° Southwest 375 432 19,700 -3,250 Descending Denver Center
Mon 10:21:13 AM 40.3781 -103.9872 224° Southwest 380 437 17,100 -1,350 Descending Denver Center
Mon 10:22:13 AM 40.3150 -104.0658 224° Southwest 337 388 17,000 -50 Descending Denver Center
Mon 10:23:13 AM 40.2642 -104.1303 225° Southwest 304 350 17,000 -250 Level Denver Center
Mon 10:24:13 AM 40.2075 -104.2056 226° Southwest 287 330 16,500 -1,300 Descending Denver Center
Mon 10:25:13 AM 40.1525 -104.2808 226° Southwest 287 330 14,400 -1,250 Descending Denver Center
Mon 10:26:13 AM 40.0975 -104.3558 225° Southwest 287 330 14,000 -200 Descending Denver Center
Mon 10:27:13 AM 40.0406 -104.4308 225° Southwest 292 336 14,000  Level Denver Center
Mon 10:28:13 AM 39.9836 -104.5058 221° Southwest 292 336 14,000 -600 Level Denver Center
Mon 10:29:13 AM 39.9303 -104.5669 168° South 271 312 12,800 -974 Descending Denver Center
Mon 10:30:10 AM 39.8667 -104.5500 169° South 250 288 12,100 -923 Descending Denver TRACON
Mon 10:31:10 AM 39.8000 -104.5333 180° South 239 275 11,000 -550 Descending Denver TRACON
Mon 10:32:10 AM 39.7333 -104.5333 180° South 247 284 11,000 -400 Level Denver TRACON
Mon 10:33:10 AM 39.6667 -104.5333 180° South 240 276 10,200 -474 Descending Denver TRACON
Mon 10:34:04 AM 39.6000 -104.5333 180° South 220 253 10,100 -526 Descending Denver TRACON
Mon 10:35:04 AM 39.5500 -104.5333 180° South 209 241 9,200 -550 Descending Denver TRACON
Mon 10:36:04 AM 39.4833 -104.5333 194° South 191 220 9,000 -100 Descending Denver TRACON
Mon 10:37:04 AM 39.4333 -104.5500 303° West 210 242 9,000  Level Denver TRACON
Mon 10:38:04 AM 39.4667 -104.6167 346° North 210 242 9,000  Level Denver TRACON
Mon 10:38:58 AM 39.5167 -104.6333 346° North 211 243 9,000  Level Denver TRACON
Mon 10:39:58 AM 39.5667 -104.6500 360° North 205 236 9,000  Level Denver TRACON
Mon 10:40:58 AM 39.6167 -104.6500 360° North 203 234 9,000 -250 Level Denver TRACON
Mon 10:41:58 AM 39.6833 -104.6500 360° North 202 232 8,500 -800 Descending Denver TRACON
Mon 10:42:58 AM 39.7333 -104.6500 360° North 184 212 7,400 -1,100 Descending Denver TRACON

Login

Don't have an account? Register now (free) for customized features, flight alerts, and more!